createdAt,value
2018-02-27T00:00:15.307Z,2.65
2018-02-27T00:02:42.850Z,4.05
2018-02-27T00:05:10.375Z,4.22
2018-02-27T00:07:37.898Z,2.87
2018-02-27T00:10:05.768Z,3.87
2018-02-27T00:12:33.294Z,4.07
2018-02-27T00:15:01.165Z,3.95
2018-02-27T00:17:28.686Z,3.62
2018-02-27T00:19:56.202Z,3.70
2018-02-27T00:22:23.749Z,3.65
2018-02-27T00:24:51.329Z,4.57
2018-02-27T00:27:19.053Z,5.00
2018-02-27T00:29:46.638Z,4.62
2018-02-27T00:32:14.157Z,3.25
2018-02-27T00:34:42.173Z,4.65
2018-02-27T00:37:09.681Z,4.40
2018-02-27T00:39:37.565Z,3.10
2018-02-27T00:42:05.083Z,3.15
2018-02-27T00:44:32.605Z,4.10
2018-02-27T00:47:00.155Z,3.22
2018-02-27T00:49:27.681Z,4.93
2018-02-27T00:51:55.465Z,4.97
2018-02-27T00:54:22.982Z,2.95
2018-02-27T00:56:50.499Z,5.35
2018-02-27T00:59:18.042Z,3.87
2018-02-27T01:01:45.582Z,3.60
2018-02-27T01:04:13.137Z,4.25
2018-02-27T01:06:40.676Z,3.58
2018-02-27T01:09:08.190Z,4.32
2018-02-27T01:11:35.758Z,4.95
2018-02-27T01:14:03.277Z,3.70
2018-02-27T01:16:30.859Z,3.95
2018-02-27T01:18:58.394Z,4.40
2018-02-27T01:21:25.908Z,4.20
2018-02-27T01:23:53.462Z,4.70
2018-02-27T01:26:20.992Z,3.58
2018-02-27T01:28:48.857Z,5.00
2018-02-27T01:31:16.372Z,4.62
2018-02-27T01:33:43.890Z,4.47
2018-02-27T01:36:11.436Z,4.00
2018-02-27T01:38:38.951Z,4.32
2018-02-27T01:41:06.643Z,4.47
2018-02-27T01:43:34.150Z,4.22
2018-02-27T01:46:01.663Z,4.43
2018-02-27T01:48:29.202Z,3.92
2018-02-27T01:51:08.733Z,5.10
2018-02-27T01:53:36.283Z,4.10
2018-02-27T01:56:03.813Z,3.30
2018-02-27T01:58:31.325Z,3.92
2018-02-27T02:00:58.890Z,3.58
2018-02-27T02:03:26.419Z,4.20
2018-02-27T02:05:54.129Z,4.18
2018-02-27T02:08:21.655Z,4.70
2018-02-27T02:10:49.173Z,3.83
2018-02-27T02:13:16.712Z,4.65
2018-02-27T02:15:45.775Z,4.30
2018-02-27T02:18:13.351Z,4.65
2018-02-27T02:20:40.861Z,3.45
2018-02-27T02:23:08.383Z,4.35
2018-02-27T02:25:35.927Z,3.80
2018-02-27T02:28:03.439Z,4.43
2018-02-27T02:30:30.987Z,2.00
2018-02-27T02:32:58.518Z,3.83
2018-02-27T02:35:26.026Z,4.57
2018-02-27T02:37:53.594Z,4.10
2018-02-27T02:40:21.110Z,4.30
2018-02-27T02:42:49.063Z,4.37
2018-02-27T02:45:16.570Z,3.87
2018-02-27T02:47:44.266Z,4.20
2018-02-27T02:50:11.794Z,4.35
2018-02-27T02:52:40.441Z,3.95
2018-02-27T02:55:07.983Z,4.30
2018-02-27T02:57:35.493Z,5.50
2018-02-27T03:00:03.409Z,4.07
2018-02-27T03:02:30.925Z,4.15
2018-02-27T03:04:58.441Z,3.90
2018-02-27T03:07:25.986Z,4.78
2018-02-27T03:09:53.494Z,4.15
2018-02-27T03:12:21.041Z,4.00
2018-02-27T03:14:48.562Z,4.45
2018-02-27T03:17:16.531Z,4.25
2018-02-27T03:19:44.075Z,4.70
2018-02-27T03:22:11.682Z,5.60
2018-02-27T03:24:39.389Z,5.68
2018-02-27T03:27:06.896Z,4.40
2018-02-27T03:29:34.414Z,4.45
2018-02-27T03:32:01.958Z,4.18
2018-02-27T03:34:30.459Z,3.97
2018-02-27T03:36:58.110Z,3.45
2018-02-27T03:39:25.631Z,5.10
2018-02-27T03:41:53.143Z,5.22
2018-02-27T03:44:20.682Z,4.10
2018-02-27T03:46:48.190Z,4.57
2018-02-27T03:49:15.902Z,4.32
2018-02-27T03:51:43.413Z,3.20
2018-02-27T03:54:10.944Z,4.72
2018-02-27T03:56:39.341Z,3.47
2018-02-27T03:59:06.846Z,4.00
2018-02-27T04:01:34.621Z,4.45
2018-02-27T04:04:02.134Z,4.37
2018-02-27T04:06:29.659Z,4.53
2018-02-27T04:08:57.219Z,4.72
2018-02-27T04:11:24.733Z,4.53
2018-02-27T04:13:52.281Z,4.22
2018-02-27T04:16:19.797Z,4.90
2018-02-27T04:18:47.318Z,4.53
2018-02-27T04:21:14.876Z,4.82
2018-02-27T04:23:42.396Z,4.65
2018-02-27T04:26:10.138Z,4.78
2018-02-27T04:28:37.656Z,4.00
2018-02-27T04:31:05.162Z,4.95
2018-02-27T04:33:32.706Z,5.28
2018-02-27T04:36:00.221Z,2.72
2018-02-27T04:38:28.014Z,4.35
2018-02-27T04:40:55.545Z,4.47
2018-02-27T04:43:23.063Z,4.95
2018-02-27T04:45:50.610Z,5.53
2018-02-27T04:48:18.132Z,4.55
2018-02-27T04:50:45.939Z,5.55
2018-02-27T04:53:13.485Z,4.35
2018-02-27T04:55:41.002Z,4.18
2018-02-27T04:58:08.545Z,4.07
2018-02-27T05:00:36.077Z,4.85
2018-02-27T05:03:03.815Z,3.78
2018-02-27T05:05:32.200Z,5.22
2018-02-27T05:08:00.490Z,4.80
2018-02-27T05:10:28.033Z,4.35
2018-02-27T05:12:55.549Z,4.45
2018-02-27T05:15:23.344Z,4.70
2018-02-27T05:17:50.878Z,5.05
2018-02-27T05:20:18.388Z,3.47
2018-02-27T05:22:45.925Z,4.55
2018-02-27T05:25:13.450Z,5.00
2018-02-27T05:27:40.998Z,6.95
2018-02-27T05:30:08.514Z,1.98
2018-02-27T05:32:36.035Z,9.25
2018-02-27T05:35:03.584Z,8.70
2018-02-27T05:37:31.113Z,7.72
2018-02-27T05:39:58.838Z,5.70
2018-02-27T05:42:26.420Z,6.43
2018-02-27T05:44:53.947Z,6.35
2018-02-27T05:47:21.486Z,4.70
2018-02-27T05:49:49.014Z,5.72
2018-02-27T05:52:16.569Z,5.57
2018-02-27T05:54:44.095Z,5.75
2018-02-27T05:57:11.611Z,5.95
2018-02-27T05:59:39.172Z,5.97
2018-02-27T06:02:06.690Z,6.22
2018-02-27T06:04:34.429Z,6.50
2018-02-27T06:07:02.930Z,5.37
2018-02-27T06:09:30.489Z,5.28
2018-02-27T06:11:58.046Z,6.30
2018-02-27T06:14:25.561Z,5.80
2018-02-27T06:16:53.349Z,3.70
2018-02-27T06:19:20.866Z,4.55
2018-02-27T06:21:48.389Z,4.75
2018-02-27T06:24:15.943Z,4.37
2018-02-27T06:26:43.459Z,5.87
2018-02-27T06:29:11.037Z,6.07
2018-02-27T06:31:38.566Z,5.70
2018-02-27T06:34:06.081Z,3.85
2018-02-27T06:36:33.631Z,6.18
2018-02-27T06:39:01.153Z,6.07
2018-02-27T06:41:28.849Z,5.32
2018-02-27T06:43:56.374Z,6.18
2018-02-27T06:46:23.888Z,4.18
2018-02-27T06:48:52.358Z,5.47
2018-02-27T06:51:19.873Z,5.10
2018-02-27T06:53:47.665Z,6.45
2018-02-27T06:56:15.183Z,4.95
2018-02-27T06:58:42.703Z,5.25
2018-02-27T07:01:10.253Z,3.08
2018-02-27T07:03:37.774Z,3.72
2018-02-27T07:06:05.376Z,2.90
2018-02-27T07:08:32.891Z,5.40
2018-02-27T07:11:00.415Z,4.82
2018-02-27T07:13:27.956Z,4.80
2018-02-27T07:15:55.486Z,4.87
2018-02-27T07:18:23.156Z,7.22
2018-02-27T07:20:50.668Z,5.12
2018-02-27T07:23:18.177Z,5.12
2018-02-27T07:25:45.724Z,4.97
2018-02-27T07:28:13.237Z,6.95
2018-02-27T07:30:40.863Z,4.05
2018-02-27T07:33:08.402Z,5.87
2018-02-27T07:35:35.926Z,5.12
2018-02-27T07:38:03.470Z,5.70
2018-02-27T07:40:30.986Z,4.95
2018-02-27T07:42:58.542Z,8.50
2018-02-27T07:45:26.055Z,3.97
2018-02-27T07:47:53.584Z,6.32
2018-02-27T07:50:21.132Z,9.10
2018-02-27T07:52:48.646Z,6.32
2018-02-27T07:55:16.489Z,6.80
2018-02-27T07:57:44.013Z,6.68
2018-02-27T08:00:11.525Z,6.72
2018-02-27T08:02:39.074Z,4.53
2018-02-27T08:05:06.594Z,13.30
2018-02-27T08:07:34.177Z,7.00
2018-02-27T08:10:01.703Z,6.03
2018-02-27T08:12:29.226Z,8.85
2018-02-27T08:14:56.774Z,7.30
2018-02-27T08:17:24.397Z,14.60
2018-02-27T08:19:52.348Z,8.63
2018-02-27T08:22:19.868Z,7.10
2018-02-27T08:24:47.378Z,4.20
2018-02-27T08:27:14.929Z,6.57
2018-02-27T08:29:42.455Z,7.87
2018-02-27T08:32:10.253Z,4.72
2018-02-27T08:34:37.793Z,6.78
2018-02-27T08:37:05.310Z,6.57
2018-02-27T08:39:32.865Z,6.87
2018-02-27T08:42:00.394Z,7.18
2018-02-27T08:44:27.994Z,7.55
2018-02-27T08:46:55.519Z,6.93
2018-02-27T08:49:23.042Z,7.55
2018-02-27T08:51:50.595Z,7.57
2018-02-27T08:54:18.118Z,5.22
2018-02-27T08:56:45.826Z,6.20
2018-02-27T08:59:13.364Z,7.70
2018-02-27T09:01:40.897Z,6.40
2018-02-27T09:04:08.436Z,7.20
2018-02-27T09:06:35.948Z,7.03
2018-02-27T09:09:03.497Z,9.35
2018-02-27T09:11:31.009Z,6.70
2018-02-27T09:13:58.538Z,9.73
2018-02-27T09:16:26.089Z,6.65
2018-02-27T09:18:53.614Z,7.93
2018-02-27T09:21:21.365Z,6.57
2018-02-27T09:23:48.882Z,5.95
2018-02-27T09:26:16.396Z,7.80
2018-02-27T09:28:44.861Z,6.75
2018-02-27T09:31:12.381Z,6.50
2018-02-27T09:33:40.241Z,7.95
2018-02-27T09:36:07.763Z,8.77
2018-02-27T09:38:35.379Z,7.62
2018-02-27T09:41:02.949Z,6.72
2018-02-27T09:43:30.473Z,7.37
2018-02-27T09:45:58.038Z,7.65
2018-02-27T09:48:25.563Z,7.78
2018-02-27T09:50:53.109Z,8.48
2018-02-27T09:53:21.653Z,9.05
2018-02-27T09:55:49.164Z,9.43
2018-02-27T09:58:16.958Z,6.95
2018-02-27T10:00:45.457Z,7.65
2018-02-27T10:03:16.460Z,8.45
2018-02-27T10:05:44.048Z,7.35
2018-02-27T10:08:11.566Z,5.80
2018-02-27T10:10:39.566Z,9.13
2018-02-27T10:13:07.083Z,7.32
2018-02-27T10:15:34.594Z,8.73
2018-02-27T10:18:02.146Z,9.32
2018-02-27T10:20:29.741Z,9.40
2018-02-27T10:22:57.790Z,9.35
2018-02-27T10:25:25.313Z,11.75
2018-02-27T10:27:52.870Z,9.95
2018-02-27T10:30:20.422Z,6.75
2018-02-27T10:32:47.946Z,10.85
2018-02-27T10:35:15.590Z,8.75
2018-02-27T10:37:44.046Z,9.77
2018-02-27T10:40:11.574Z,8.00
2018-02-27T10:42:39.119Z,10.13
2018-02-27T10:45:06.654Z,10.60
2018-02-27T10:47:34.302Z,11.12
2018-02-27T10:50:01.823Z,8.30
2018-02-27T10:52:29.338Z,9.02
2018-02-27T10:54:56.886Z,7.75
2018-02-27T10:57:24.409Z,10.00
2018-02-27T10:59:52.183Z,9.90
2018-02-27T11:02:19.707Z,11.55
2018-02-27T11:04:47.737Z,7.10
2018-02-27T11:07:15.290Z,9.30
2018-02-27T11:09:43.259Z,9.45
2018-02-27T11:12:11.010Z,10.45
2018-02-27T11:14:38.596Z,10.00
2018-02-27T11:17:06.343Z,11.30
2018-02-27T11:19:34.305Z,10.35
2018-02-27T11:22:01.838Z,12.55
2018-02-27T11:24:29.616Z,12.77
2018-02-27T11:26:57.130Z,13.10
2018-02-27T11:29:24.653Z,12.80
2018-02-27T11:31:52.199Z,12.60
2018-02-27T11:34:19.709Z,12.45
2018-02-27T11:36:47.522Z,13.93
2018-02-27T11:39:15.047Z,13.35
2018-02-27T11:41:43.576Z,11.18
2018-02-27T11:44:11.141Z,12.60
2018-02-27T11:46:39.029Z,10.85
2018-02-27T11:49:06.618Z,10.90
2018-02-27T11:51:34.224Z,12.68
2018-02-27T11:54:01.759Z,11.57
2018-02-27T11:56:29.466Z,11.02
2018-02-27T11:58:57.070Z,9.85
2018-02-27T12:01:25.586Z,11.77
2018-02-27T12:03:53.106Z,11.98
2018-02-27T12:06:21.523Z,12.07
2018-02-27T12:08:50.107Z,10.20
2018-02-27T12:11:17.695Z,11.63
2018-02-27T12:13:45.466Z,15.23
2018-02-27T12:16:12.952Z,13.73
2018-02-27T12:18:40.466Z,12.70
2018-02-27T12:21:08.011Z,11.68
2018-02-27T12:23:35.543Z,11.45
2018-02-27T12:26:03.331Z,14.05
2018-02-27T12:28:30.875Z,16.52
2018-02-27T12:30:58.386Z,14.95
2018-02-27T12:33:25.951Z,16.80
2018-02-27T12:35:53.470Z,13.68
2018-02-27T12:38:21.209Z,14.07
2018-02-27T12:40:48.719Z,11.55
2018-02-27T12:43:16.250Z,14.38
2018-02-27T12:45:44.826Z,12.57
2018-02-27T12:48:12.692Z,17.15
2018-02-27T12:50:40.868Z,12.65
2018-02-27T12:53:08.395Z,13.20
2018-02-27T12:55:35.938Z,18.23
2018-02-27T12:58:03.604Z,13.88
2018-02-27T13:00:31.145Z,12.98
2018-02-27T13:02:58.892Z,14.60
2018-02-27T13:05:26.629Z,10.50
2018-02-27T13:07:54.395Z,10.45
2018-02-27T13:10:22.150Z,14.07
2018-02-27T13:12:49.930Z,13.80
2018-02-27T13:15:17.658Z,13.88
2018-02-27T13:17:45.220Z,13.32
2018-02-27T13:20:12.820Z,12.60
2018-02-27T13:22:40.775Z,13.95
2018-02-27T13:25:08.641Z,12.37
2018-02-27T13:27:36.499Z,9.63
2018-02-27T13:30:04.082Z,13.88
2018-02-27T13:32:31.809Z,10.23
2018-02-27T13:34:59.595Z,11.82
2018-02-27T13:37:27.304Z,13.88
2018-02-27T13:39:55.327Z,12.13
2018-02-27T13:42:22.944Z,11.30
2018-02-27T13:44:50.504Z,14.35
2018-02-27T13:47:18.062Z,11.12
2018-02-27T13:49:45.588Z,13.93
2018-02-27T13:52:14.529Z,14.13
2018-02-27T13:54:42.937Z,13.95
2018-02-27T13:57:10.801Z,14.80
2018-02-27T13:59:38.462Z,14.02
2018-02-27T14:02:06.297Z,13.60
2018-02-27T14:04:34.178Z,13.20
2018-02-27T14:07:01.961Z,13.40
2018-02-27T14:09:29.505Z,14.38
2018-02-27T14:11:57.064Z,12.13
2018-02-27T14:14:24.638Z,14.02
2018-02-27T14:16:52.636Z,13.18
2018-02-27T14:19:20.251Z,15.25
2018-02-27T14:21:48.031Z,14.85
2018-02-27T14:24:15.792Z,16.33
2018-02-27T14:26:43.327Z,17.27
2018-02-27T14:29:11.528Z,12.75
2018-02-27T14:31:39.087Z,10.73
2018-02-27T14:34:06.625Z,14.13
2018-02-27T14:36:34.181Z,13.90
2018-02-27T14:39:01.743Z,13.77
2018-02-27T14:41:29.837Z,10.68
2018-02-27T14:43:57.411Z,10.35
2018-02-27T14:46:24.967Z,13.15
2018-02-27T14:48:52.906Z,11.82
2018-02-27T14:51:20.690Z,13.02
2018-02-27T14:53:48.870Z,13.88
2018-02-27T14:56:16.445Z,12.20
2018-02-27T14:58:43.992Z,13.60
2018-02-27T15:01:11.573Z,12.52
2018-02-27T15:03:39.432Z,13.57
2018-02-27T15:06:07.581Z,13.75
2018-02-27T15:08:35.550Z,11.35
2018-02-27T15:11:04.195Z,14.70
2018-02-27T15:13:31.777Z,13.45
2018-02-27T15:15:59.704Z,13.65
2018-02-27T15:18:29.210Z,10.70
2018-02-27T15:20:58.119Z,11.52
2018-02-27T15:23:26.944Z,12.07
2018-02-27T15:25:54.695Z,11.68
2018-02-27T15:28:22.579Z,12.50
2018-02-27T15:30:50.650Z,14.63
2018-02-27T15:33:18.484Z,8.82
2018-02-27T15:35:46.380Z,12.10
2018-02-27T15:38:14.351Z,14.77
2018-02-27T15:40:42.117Z,10.70
2018-02-27T15:43:11.112Z,14.23
2018-02-27T15:45:38.975Z,11.68
2018-02-27T15:48:06.849Z,12.68
2018-02-27T15:50:34.523Z,11.10
2018-02-27T15:53:02.472Z,13.13
2018-02-27T15:55:30.745Z,12.85
2018-02-27T15:57:58.565Z,11.05
2018-02-27T16:00:26.371Z,14.10
2018-02-27T16:02:54.245Z,15.40
2018-02-27T16:05:22.109Z,15.93
2018-02-27T16:07:49.916Z,15.68
2018-02-27T16:10:17.952Z,13.25
2018-02-27T16:12:46.323Z,13.55
2018-02-27T16:15:14.090Z,14.82
2018-02-27T16:17:41.854Z,16.00
2018-02-27T16:20:09.820Z,11.65
2018-02-27T16:22:37.494Z,12.70
2018-02-27T16:25:05.963Z,8.70
2018-02-27T16:27:33.960Z,15.32
2018-02-27T16:30:01.902Z,10.90
2018-02-27T16:32:30.676Z,13.45
2018-02-27T16:34:58.418Z,21.67
2018-02-27T16:37:26.420Z,16.70
2018-02-27T16:39:54.389Z,17.67
2018-02-27T16:42:22.258Z,16.48
2018-02-27T16:44:50.224Z,18.00
2018-02-27T16:47:19.890Z,13.27
2018-02-27T16:49:48.057Z,18.27
2018-02-27T16:52:16.402Z,18.60
2018-02-27T16:54:44.341Z,25.25
2018-02-27T16:57:13.026Z,19.15
2018-02-27T16:59:41.008Z,16.00
2018-02-27T17:02:08.976Z,17.90
2018-02-27T17:04:36.946Z,15.65
2018-02-27T17:07:05.639Z,16.27
2018-02-27T17:09:33.599Z,12.27
2018-02-27T17:12:01.743Z,15.32
2018-02-27T17:14:29.845Z,17.42
2018-02-27T17:16:58.019Z,18.85
2018-02-27T17:19:26.327Z,15.20
2018-02-27T17:21:54.467Z,16.92
2018-02-27T17:24:22.744Z,14.57
2018-02-27T17:26:50.817Z,14.63
2018-02-27T17:29:18.680Z,13.10
2018-02-27T17:31:46.549Z,17.05
2018-02-27T17:34:14.778Z,14.87
2018-02-27T17:36:42.600Z,15.38
2018-02-27T17:39:10.411Z,15.52
2018-02-27T17:41:38.322Z,14.40
2018-02-27T17:44:06.190Z,17.08
2018-02-27T17:46:34.360Z,16.12
2018-02-27T17:49:02.330Z,14.90
2018-02-27T17:51:31.118Z,13.85
2018-02-27T17:53:58.980Z,16.05
2018-02-27T17:56:26.852Z,16.00
2018-02-27T17:58:54.991Z,15.63
2018-02-27T18:01:22.910Z,15.38
2018-02-27T18:03:50.697Z,15.68
2018-02-27T18:06:18.620Z,14.85
2018-02-27T18:08:46.801Z,17.05
2018-02-27T18:11:14.974Z,16.60
2018-02-27T18:13:42.734Z,14.35
2018-02-27T18:16:10.602Z,15.07
2018-02-27T18:18:38.674Z,13.77
2018-02-27T18:21:06.709Z,12.55
2018-02-27T18:23:35.144Z,13.10
2018-02-27T18:26:02.989Z,13.30
2018-02-27T18:28:31.662Z,13.02
2018-02-27T18:31:00.464Z,12.10
2018-02-27T18:33:28.945Z,12.52
2018-02-27T18:35:57.491Z,15.05
2018-02-27T18:38:25.500Z,14.95
2018-02-27T18:40:53.487Z,12.77
2018-02-27T18:43:25.045Z,13.93
2018-02-27T18:45:54.113Z,14.13
2018-02-27T18:48:22.417Z,13.00
2018-02-27T18:50:50.182Z,15.05
2018-02-27T18:53:17.976Z,13.27
2018-02-27T18:55:46.194Z,13.85
2018-02-27T18:58:14.060Z,10.13
2018-02-27T19:00:42.252Z,12.65
2018-02-27T19:03:10.613Z,11.40
2018-02-27T19:05:38.685Z,15.00
2018-02-27T19:08:06.653Z,13.20
2018-02-27T19:10:34.929Z,15.45
2018-02-27T19:13:03.106Z,14.13
2018-02-27T19:15:31.789Z,15.05
2018-02-27T19:17:59.757Z,17.35
2018-02-27T19:20:27.744Z,12.73
2018-02-27T19:22:56.209Z,12.70
2018-02-27T19:25:24.198Z,12.82
2018-02-27T19:27:52.144Z,12.70
2018-02-27T19:30:20.130Z,12.65
2018-02-27T19:32:47.999Z,11.98
2018-02-27T19:35:16.057Z,13.93
2018-02-27T19:37:44.328Z,13.52
2018-02-27T19:40:12.297Z,11.80
2018-02-27T19:42:40.163Z,14.10
2018-02-27T19:45:08.758Z,14.75
2018-02-27T19:47:36.716Z,14.73
2018-02-27T19:50:04.686Z,17.70
2018-02-27T19:52:32.570Z,19.27
2018-02-27T19:55:00.435Z,18.58
2018-02-27T19:57:29.620Z,18.20
2018-02-27T19:59:57.543Z,15.65
2018-02-27T20:02:26.067Z,16.75
2018-02-27T20:04:54.038Z,16.12
2018-02-27T20:07:21.900Z,16.25
2018-02-27T20:09:50.594Z,16.27
2018-02-27T20:12:19.151Z,15.43
2018-02-27T20:14:47.653Z,12.95
2018-02-27T20:17:15.932Z,14.15
2018-02-27T20:19:44.818Z,15.38
2018-02-27T20:22:13.266Z,13.30
2018-02-27T20:24:41.684Z,15.32
2018-02-27T20:27:09.623Z,14.07
2018-02-27T20:29:38.332Z,15.23
2018-02-27T20:32:06.505Z,15.27
2018-02-27T20:34:34.487Z,14.90
2018-02-27T20:37:02.443Z,15.15
2018-02-27T20:39:30.422Z,14.02
2018-02-27T20:41:58.297Z,15.73
2018-02-27T20:44:26.656Z,15.18
2018-02-27T20:46:54.626Z,12.80
2018-02-27T20:49:22.694Z,13.52
2018-02-27T20:51:50.878Z,15.95
2018-02-27T20:54:22.902Z,15.05
2018-02-27T20:56:51.332Z,15.52
2018-02-27T20:59:19.281Z,12.95
2018-02-27T21:01:47.165Z,10.98
2018-02-27T21:04:15.117Z,12.07
2018-02-27T21:06:42.982Z,13.77
2018-02-27T21:09:11.125Z,13.15
2018-02-27T21:11:39.555Z,12.57
2018-02-27T21:14:07.504Z,12.88
2018-02-27T21:16:35.396Z,12.95
2018-02-27T21:19:03.342Z,15.40
2018-02-27T21:21:31.206Z,15.13
2018-02-27T21:23:59.121Z,17.00
2018-02-27T21:26:27.040Z,17.25
2018-02-27T21:28:55.829Z,16.67
2018-02-27T21:31:23.696Z,16.83
2018-02-27T21:33:51.535Z,19.08
2018-02-27T21:36:19.961Z,17.60
2018-02-27T21:38:48.023Z,22.50
2018-02-27T21:41:15.878Z,20.27
2018-02-27T21:43:44.359Z,19.60
2018-02-27T21:46:12.170Z,19.35
2018-02-27T21:48:39.990Z,15.73
2018-02-27T21:51:07.963Z,14.52
2018-02-27T21:53:36.746Z,15.93
2018-02-27T21:56:04.715Z,8.52
2018-02-27T21:58:32.685Z,12.35
2018-02-27T22:01:01.165Z,12.98
2018-02-27T22:03:29.111Z,13.52
2018-02-27T22:05:58.026Z,15.13
2018-02-27T22:08:26.625Z,12.35
2018-02-27T22:10:54.958Z,13.60
2018-02-27T22:13:22.853Z,14.73
2018-02-27T22:15:51.220Z,11.80
2018-02-27T22:18:19.826Z,14.70
2018-02-27T22:20:48.173Z,12.13
2018-02-27T22:23:16.176Z,12.88
2018-02-27T22:25:43.948Z,12.77
2018-02-27T22:28:11.999Z,14.63
2018-02-27T22:30:40.087Z,12.23
2018-02-27T22:33:07.872Z,16.70
2018-02-27T22:35:35.597Z,11.85
2018-02-27T22:38:04.059Z,10.75
2018-02-27T22:40:31.946Z,11.77
2018-02-27T22:42:59.608Z,10.32
2018-02-27T22:45:27.392Z,12.68
2018-02-27T22:47:55.027Z,13.05
2018-02-27T22:50:22.778Z,8.95
2018-02-27T22:52:50.562Z,12.13
2018-02-27T22:55:19.361Z,10.75
2018-02-27T22:57:47.125Z,11.93
2018-02-27T23:00:14.878Z,12.85
2018-02-27T23:02:42.455Z,12.77
2018-02-27T23:05:10.100Z,12.98
2018-02-27T23:07:38.055Z,13.57
2018-02-27T23:10:05.811Z,13.68
2018-02-27T23:12:33.399Z,12.10
2018-02-27T23:15:00.966Z,14.30
2018-02-27T23:17:28.708Z,12.65
2018-02-27T23:19:56.287Z,10.57
2018-02-27T23:22:24.022Z,12.93
2018-02-27T23:24:57.330Z,11.70
2018-02-27T23:27:26.332Z,12.57
2018-02-27T23:29:54.826Z,13.23
2018-02-27T23:32:26.331Z,14.20
2018-02-27T23:34:54.677Z,11.93
2018-02-27T23:37:22.510Z,15.02
2018-02-27T23:39:50.570Z,12.77
2018-02-27T23:42:18.110Z,10.25
2018-02-27T23:44:45.766Z,14.93
2018-02-27T23:47:13.286Z,13.45
2018-02-27T23:49:40.812Z,9.90
2018-02-27T23:52:08.683Z,11.82
2018-02-27T23:54:36.552Z,12.82
2018-02-27T23:57:04.575Z,11.77
2018-02-27T23:59:32.088Z,9.75
